sensor_id;sensor_type;location;lat;lon;timestamp;P1;durP1;ratioP1;P2;durP2;ratioP2
71108;SDS011;59614;51.012;-1.648;2023-08-12T00:01:20;14.55;;;3.88;;
71108;SDS011;59614;51.012;-1.648;2023-08-12T00:03:46;16.27;;;4.18;;
71108;SDS011;59614;51.012;-1.648;2023-08-12T00:06:13;21.93;;;4.70;;
71108;SDS011;59614;51.012;-1.648;2023-08-12T00:08:38;21.05;;;4.40;;
71108;SDS011;59614;51.012;-1.648;2023-08-12T00:11:04;20.23;;;4.32;;
71108;SDS011;59614;51.012;-1.648;2023-08-12T00:13:29;22.00;;;4.43;;
71108;SDS011;59614;51.012;-1.648;2023-08-12T00:15:55;12.45;;;3.80;;
71108;SDS011;59614;51.012;-1.648;2023-08-12T00:18:21;17.13;;;4.22;;
71108;SDS011;59614;51.012;-1.648;2023-08-12T00:20:47;18.35;;;4.38;;
71108;SDS011;59614;51.012;-1.648;2023-08-12T00:23:12;15.43;;;4.28;;
71108;SDS011;59614;51.012;-1.648;2023-08-12T00:25:38;14.57;;;4.07;;
71108;SDS011;59614;51.012;-1.648;2023-08-12T00:28:03;18.60;;;4.68;;
71108;SDS011;59614;51.012;-1.648;2023-08-12T00:30:29;22.05;;;4.90;;
71108;SDS011;59614;51.012;-1.648;2023-08-12T00:32:54;23.45;;;5.00;;
71108;SDS011;59614;51.012;-1.648;2023-08-12T00:35:20;15.70;;;4.40;;
71108;SDS011;59614;51.012;-1.648;2023-08-12T00:37:45;15.02;;;4.88;;
71108;SDS011;59614;51.012;-1.648;2023-08-12T00:40:11;22.42;;;4.60;;
71108;SDS011;59614;51.012;-1.648;2023-08-12T00:42:37;22.10;;;4.88;;
71108;SDS011;59614;51.012;-1.648;2023-08-12T00:45:03;18.73;;;4.22;;
71108;SDS011;59614;51.012;-1.648;2023-08-12T00:47:34;15.48;;;4.40;;
71108;SDS011;59614;51.012;-1.648;2023-08-12T00:49:59;24.83;;;4.60;;
71108;SDS011;59614;51.012;-1.648;2023-08-12T00:52:25;15.48;;;4.50;;
71108;SDS011;59614;51.012;-1.648;2023-08-12T00:54:51;23.63;;;5.53;;
71108;SDS011;59614;51.012;-1.648;2023-08-12T00:57:17;22.23;;;4.85;;
71108;SDS011;59614;51.012;-1.648;2023-08-12T00:59:42;21.27;;;4.70;;
71108;SDS011;59614;51.012;-1.648;2023-08-12T01:02:09;22.92;;;4.47;;
71108;SDS011;59614;51.012;-1.648;2023-08-12T01:04:35;20.73;;;5.22;;
71108;SDS011;59614;51.012;-1.648;2023-08-12T01:07:01;22.88;;;5.05;;
71108;SDS011;59614;51.012;-1.648;2023-08-12T01:09:26;24.17;;;4.97;;
71108;SDS011;59614;51.012;-1.648;2023-08-12T01:11:57;21.60;;;4.72;;
71108;SDS011;59614;51.012;-1.648;2023-08-12T01:16:59;18.83;;;4.78;;
71108;SDS011;59614;51.012;-1.648;2023-08-12T01:19:29;27.38;;;5.28;;
71108;SDS011;59614;51.012;-1.648;2023-08-12T01:22:00;21.42;;;5.38;;
71108;SDS011;59614;51.012;-1.648;2023-08-12T01:24:26;27.17;;;5.50;;
71108;SDS011;59614;51.012;-1.648;2023-08-12T01:26:58;28.92;;;5.50;;
71108;SDS011;59614;51.012;-1.648;2023-08-12T01:29:24;18.67;;;5.20;;
71108;SDS011;59614;51.012;-1.648;2023-08-12T01:31:58;21.67;;;5.72;;
71108;SDS011;59614;51.012;-1.648;2023-08-12T01:37:06;24.02;;;5.50;;
71108;SDS011;59614;51.012;-1.648;2023-08-12T01:39:35;18.10;;;5.13;;
71108;SDS011;59614;51.012;-1.648;2023-08-12T01:42:04;18.40;;;4.63;;
71108;SDS011;59614;51.012;-1.648;2023-08-12T01:44:30;22.30;;;5.45;;
71108;SDS011;59614;51.012;-1.648;2023-08-12T01:46:56;22.52;;;5.20;;
71108;SDS011;59614;51.012;-1.648;2023-08-12T01:49:21;21.38;;;5.20;;
71108;SDS011;59614;51.012;-1.648;2023-08-12T01:51:48;23.98;;;5.40;;
71108;SDS011;59614;51.012;-1.648;2023-08-12T01:54:13;27.08;;;5.78;;
71108;SDS011;59614;51.012;-1.648;2023-08-12T01:56:39;18.45;;;5.03;;
71108;SDS011;59614;51.012;-1.648;2023-08-12T01:59:04;21.23;;;5.22;;
71108;SDS011;59614;51.012;-1.648;2023-08-12T02:01:30;21.40;;;4.75;;
71108;SDS011;59614;51.012;-1.648;2023-08-12T02:03:55;22.02;;;5.18;;
71108;SDS011;59614;51.012;-1.648;2023-08-12T02:06:20;23.35;;;4.97;;
71108;SDS011;59614;51.012;-1.648;2023-08-12T02:08:46;19.33;;;5.45;;
71108;SDS011;59614;51.012;-1.648;2023-08-12T02:11:11;23.27;;;4.95;;
71108;SDS011;59614;51.012;-1.648;2023-08-12T02:13:37;23.20;;;5.38;;
71108;SDS011;59614;51.012;-1.648;2023-08-12T02:16:02;17.52;;;5.10;;
71108;SDS011;59614;51.012;-1.648;2023-08-12T02:18:28;12.95;;;4.45;;
71108;SDS011;59614;51.012;-1.648;2023-08-12T02:20:53;19.13;;;5.00;;
71108;SDS011;59614;51.012;-1.648;2023-08-12T02:23:18;21.95;;;5.30;;
71108;SDS011;59614;51.012;-1.648;2023-08-12T02:25:44;21.50;;;4.97;;
71108;SDS011;59614;51.012;-1.648;2023-08-12T02:28:09;23.35;;;5.13;;
71108;SDS011;59614;51.012;-1.648;2023-08-12T02:30:35;22.15;;;5.38;;
71108;SDS011;59614;51.012;-1.648;2023-08-12T02:33:00;26.35;;;5.63;;
71108;SDS011;59614;51.012;-1.648;2023-08-12T02:35:26;23.88;;;5.45;;
71108;SDS011;59614;51.012;-1.648;2023-08-12T02:37:51;30.70;;;5.30;;
71108;SDS011;59614;51.012;-1.648;2023-08-12T02:40:16;18.90;;;5.03;;
71108;SDS011;59614;51.012;-1.648;2023-08-12T02:42:42;22.23;;;5.22;;
71108;SDS011;59614;51.012;-1.648;2023-08-12T02:45:08;25.55;;;5.25;;
71108;SDS011;59614;51.012;-1.648;2023-08-12T02:47:33;20.88;;;5.25;;
71108;SDS011;59614;51.012;-1.648;2023-08-12T02:49:59;17.67;;;5.30;;
71108;SDS011;59614;51.012;-1.648;2023-08-12T02:52:24;24.73;;;5.70;;
71108;SDS011;59614;51.012;-1.648;2023-08-12T02:54:50;20.27;;;4.60;;
71108;SDS011;59614;51.012;-1.648;2023-08-12T02:57:15;20.67;;;5.68;;
71108;SDS011;59614;51.012;-1.648;2023-08-12T02:59:40;23.77;;;5.05;;
71108;SDS011;59614;51.012;-1.648;2023-08-12T03:02:06;20.00;;;6.03;;
71108;SDS011;59614;51.012;-1.648;2023-08-12T03:04:31;17.90;;;5.40;;
71108;SDS011;59614;51.012;-1.648;2023-08-12T03:06:57;20.08;;;5.18;;
71108;SDS011;59614;51.012;-1.648;2023-08-12T03:09:22;23.50;;;4.78;;
71108;SDS011;59614;51.012;-1.648;2023-08-12T03:11:48;26.45;;;6.00;;
71108;SDS011;59614;51.012;-1.648;2023-08-12T03:14:13;24.52;;;6.10;;
71108;SDS011;59614;51.012;-1.648;2023-08-12T03:16:38;16.10;;;5.03;;
71108;SDS011;59614;51.012;-1.648;2023-08-12T03:19:04;19.77;;;4.70;;
71108;SDS011;59614;51.012;-1.648;2023-08-12T03:21:29;20.50;;;5.72;;
71108;SDS011;59614;51.012;-1.648;2023-08-12T03:23:56;19.25;;;4.60;;
71108;SDS011;59614;51.012;-1.648;2023-08-12T03:26:21;16.33;;;5.13;;
71108;SDS011;59614;51.012;-1.648;2023-08-12T03:28:46;19.58;;;5.15;;
71108;SDS011;59614;51.012;-1.648;2023-08-12T03:31:12;20.38;;;5.13;;
71108;SDS011;59614;51.012;-1.648;2023-08-12T03:33:37;19.75;;;5.18;;
71108;SDS011;59614;51.012;-1.648;2023-08-12T03:36:03;22.88;;;5.63;;
71108;SDS011;59614;51.012;-1.648;2023-08-12T03:38:29;19.92;;;5.60;;
71108;SDS011;59614;51.012;-1.648;2023-08-12T03:40:54;22.50;;;5.40;;
71108;SDS011;59614;51.012;-1.648;2023-08-12T03:43:20;19.58;;;5.20;;
71108;SDS011;59614;51.012;-1.648;2023-08-12T03:45:45;18.60;;;4.88;;
71108;SDS011;59614;51.012;-1.648;2023-08-12T03:48:11;17.50;;;5.25;;
71108;SDS011;59614;51.012;-1.648;2023-08-12T03:50:37;18.35;;;5.20;;
71108;SDS011;59614;51.012;-1.648;2023-08-12T03:53:03;25.33;;;6.32;;
71108;SDS011;59614;51.012;-1.648;2023-08-12T03:55:32;18.08;;;5.47;;
71108;SDS011;59614;51.012;-1.648;2023-08-12T03:57:58;17.63;;;4.82;;
71108;SDS011;59614;51.012;-1.648;2023-08-12T04:00:24;20.42;;;5.20;;
71108;SDS011;59614;51.012;-1.648;2023-08-12T04:02:50;19.88;;;5.32;;
71108;SDS011;59614;51.012;-1.648;2023-08-12T04:05:15;20.40;;;5.40;;
71108;SDS011;59614;51.012;-1.648;2023-08-12T04:07:41;21.27;;;5.25;;
71108;SDS011;59614;51.012;-1.648;2023-08-12T04:10:07;21.02;;;5.47;;
71108;SDS011;59614;51.012;-1.648;2023-08-12T04:12:33;19.80;;;5.72;;
71108;SDS011;59614;51.012;-1.648;2023-08-12T04:14:58;26.23;;;6.13;;
71108;SDS011;59614;51.012;-1.648;2023-08-12T04:17:25;24.65;;;5.90;;
71108;SDS011;59614;51.012;-1.648;2023-08-12T04:19:50;21.55;;;5.45;;
71108;SDS011;59614;51.012;-1.648;2023-08-12T04:22:16;20.95;;;5.63;;
71108;SDS011;59614;51.012;-1.648;2023-08-12T04:24:41;20.48;;;6.43;;
71108;SDS011;59614;51.012;-1.648;2023-08-12T04:27:07;24.63;;;5.47;;
71108;SDS011;59614;51.012;-1.648;2023-08-12T04:29:32;24.58;;;5.45;;
71108;SDS011;59614;51.012;-1.648;2023-08-12T04:31:58;22.40;;;5.38;;
71108;SDS011;59614;51.012;-1.648;2023-08-12T04:34:23;21.92;;;5.57;;
71108;SDS011;59614;51.012;-1.648;2023-08-12T04:36:48;23.30;;;5.75;;
71108;SDS011;59614;51.012;-1.648;2023-08-12T04:39:14;17.48;;;5.50;;
71108;SDS011;59614;51.012;-1.648;2023-08-12T04:41:39;23.55;;;5.53;;
71108;SDS011;59614;51.012;-1.648;2023-08-12T04:44:05;26.50;;;5.80;;
71108;SDS011;59614;51.012;-1.648;2023-08-12T04:46:30;22.60;;;5.53;;
71108;SDS011;59614;51.012;-1.648;2023-08-12T04:48:56;23.58;;;5.70;;
71108;SDS011;59614;51.012;-1.648;2023-08-12T04:51:21;26.42;;;6.03;;
71108;SDS011;59614;51.012;-1.648;2023-08-12T04:53:47;24.27;;;5.82;;
71108;SDS011;59614;51.012;-1.648;2023-08-12T04:56:12;27.15;;;5.47;;
71108;SDS011;59614;51.012;-1.648;2023-08-12T04:58:38;19.95;;;5.97;;
71108;SDS011;59614;51.012;-1.648;2023-08-12T05:01:03;25.52;;;5.45;;
71108;SDS011;59614;51.012;-1.648;2023-08-12T05:03:29;19.10;;;5.40;;
71108;SDS011;59614;51.012;-1.648;2023-08-12T05:05:54;18.33;;;5.10;;
71108;SDS011;59614;51.012;-1.648;2023-08-12T05:08:20;21.95;;;5.07;;
71108;SDS011;59614;51.012;-1.648;2023-08-12T05:10:48;21.35;;;5.72;;
71108;SDS011;59614;51.012;-1.648;2023-08-12T05:13:14;24.27;;;5.95;;
71108;SDS011;59614;51.012;-1.648;2023-08-12T05:15:39;18.05;;;5.68;;
71108;SDS011;59614;51.012;-1.648;2023-08-12T05:18:05;23.60;;;4.70;;
71108;SDS011;59614;51.012;-1.648;2023-08-12T05:20:31;24.17;;;5.72;;
71108;SDS011;59614;51.012;-1.648;2023-08-12T05:22:56;26.85;;;5.78;;
71108;SDS011;59614;51.012;-1.648;2023-08-12T05:25:21;22.00;;;5.18;;
71108;SDS011;59614;51.012;-1.648;2023-08-12T05:27:47;26.05;;;5.10;;
71108;SDS011;59614;51.012;-1.648;2023-08-12T05:30:12;26.45;;;6.30;;
71108;SDS011;59614;51.012;-1.648;2023-08-12T05:32:38;30.23;;;5.38;;
71108;SDS011;59614;51.012;-1.648;2023-08-12T05:35:04;27.25;;;5.72;;
71108;SDS011;59614;51.012;-1.648;2023-08-12T05:37:30;33.83;;;6.40;;
71108;SDS011;59614;51.012;-1.648;2023-08-12T05:39:55;18.67;;;4.72;;
71108;SDS011;59614;51.012;-1.648;2023-08-12T05:42:20;32.40;;;5.88;;
71108;SDS011;59614;51.012;-1.648;2023-08-12T05:44:46;31.40;;;6.40;;
71108;SDS011;59614;51.012;-1.648;2023-08-12T05:47:11;22.88;;;4.95;;
71108;SDS011;59614;51.012;-1.648;2023-08-12T05:49:37;29.58;;;5.60;;
71108;SDS011;59614;51.012;-1.648;2023-08-12T05:52:02;37.03;;;6.35;;
71108;SDS011;59614;51.012;-1.648;2023-08-12T05:54:28;28.25;;;5.03;;
71108;SDS011;59614;51.012;-1.648;2023-08-12T05:56:53;27.73;;;5.68;;
71108;SDS011;59614;51.012;-1.648;2023-08-12T05:59:19;29.70;;;6.30;;
71108;SDS011;59614;51.012;-1.648;2023-08-12T06:01:44;30.77;;;5.43;;
71108;SDS011;59614;51.012;-1.648;2023-08-12T06:04:09;33.63;;;6.20;;
71108;SDS011;59614;51.012;-1.648;2023-08-12T06:06:35;26.67;;;5.55;;
71108;SDS011;59614;51.012;-1.648;2023-08-12T06:09:00;33.05;;;6.40;;
71108;SDS011;59614;51.012;-1.648;2023-08-12T06:11:26;25.52;;;5.15;;
71108;SDS011;59614;51.012;-1.648;2023-08-12T06:13:51;28.52;;;5.32;;
71108;SDS011;59614;51.012;-1.648;2023-08-12T06:16:17;30.15;;;6.55;;
71108;SDS011;59614;51.012;-1.648;2023-08-12T06:18:42;30.55;;;6.25;;
71108;SDS011;59614;51.012;-1.648;2023-08-12T06:21:07;31.38;;;5.55;;
71108;SDS011;59614;51.012;-1.648;2023-08-12T06:23:33;29.77;;;5.53;;
71108;SDS011;59614;51.012;-1.648;2023-08-12T06:25:58;28.70;;;4.78;;
71108;SDS011;59614;51.012;-1.648;2023-08-12T06:28:24;23.52;;;5.25;;
71108;SDS011;59614;51.012;-1.648;2023-08-12T06:30:49;25.13;;;5.07;;
71108;SDS011;59614;51.012;-1.648;2023-08-12T06:33:15;30.00;;;5.72;;
71108;SDS011;59614;51.012;-1.648;2023-08-12T06:35:41;29.52;;;5.15;;
71108;SDS011;59614;51.012;-1.648;2023-08-12T06:38:07;27.25;;;5.20;;
71108;SDS011;59614;51.012;-1.648;2023-08-12T06:43:00;27.95;;;5.45;;
71108;SDS011;59614;51.012;-1.648;2023-08-12T06:45:25;21.73;;;4.80;;
71108;SDS011;59614;51.012;-1.648;2023-08-12T06:47:51;23.83;;;5.00;;
71108;SDS011;59614;51.012;-1.648;2023-08-12T06:50:16;26.48;;;5.10;;
71108;SDS011;59614;51.012;-1.648;2023-08-12T06:52:42;32.63;;;5.72;;
71108;SDS011;59614;51.012;-1.648;2023-08-12T06:55:07;28.80;;;5.47;;
71108;SDS011;59614;51.012;-1.648;2023-08-12T06:57:33;29.08;;;5.38;;
71108;SDS011;59614;51.012;-1.648;2023-08-12T06:59:59;30.17;;;5.45;;
71108;SDS011;59614;51.012;-1.648;2023-08-12T07:02:24;29.50;;;4.85;;
71108;SDS011;59614;51.012;-1.648;2023-08-12T07:04:49;25.70;;;5.18;;
71108;SDS011;59614;51.012;-1.648;2023-08-12T07:07:15;26.70;;;4.70;;
71108;SDS011;59614;51.012;-1.648;2023-08-12T07:09:40;27.73;;;5.35;;
71108;SDS011;59614;51.012;-1.648;2023-08-12T07:12:06;32.03;;;5.95;;
71108;SDS011;59614;51.012;-1.648;2023-08-12T07:14:31;25.83;;;5.13;;
71108;SDS011;59614;51.012;-1.648;2023-08-12T07:16:57;27.48;;;5.03;;
71108;SDS011;59614;51.012;-1.648;2023-08-12T07:19:22;28.80;;;5.68;;
71108;SDS011;59614;51.012;-1.648;2023-08-12T07:21:48;29.80;;;5.90;;
71108;SDS011;59614;51.012;-1.648;2023-08-12T07:24:13;29.17;;;5.30;;
71108;SDS011;59614;51.012;-1.648;2023-08-12T07:26:39;25.60;;;4.90;;
71108;SDS011;59614;51.012;-1.648;2023-08-12T07:29:04;25.50;;;5.72;;
71108;SDS011;59614;51.012;-1.648;2023-08-12T07:31:30;26.58;;;5.40;;
71108;SDS011;59614;51.012;-1.648;2023-08-12T07:33:55;32.95;;;5.07;;
71108;SDS011;59614;51.012;-1.648;2023-08-12T07:36:20;27.38;;;5.03;;
71108;SDS011;59614;51.012;-1.648;2023-08-12T07:38:46;28.27;;;5.80;;
71108;SDS011;59614;51.012;-1.648;2023-08-12T07:41:11;25.10;;;5.20;;
71108;SDS011;59614;51.012;-1.648;2023-08-12T07:43:37;20.85;;;5.15;;
71108;SDS011;59614;51.012;-1.648;2023-08-12T07:46:02;33.08;;;5.15;;
71108;SDS011;59614;51.012;-1.648;2023-08-12T07:48:29;30.27;;;5.65;;
71108;SDS011;59614;51.012;-1.648;2023-08-12T07:50:56;23.58;;;5.03;;
71108;SDS011;59614;51.012;-1.648;2023-08-12T07:53:22;29.10;;;5.70;;
71108;SDS011;59614;51.012;-1.648;2023-08-12T07:55:47;28.23;;;5.40;;
71108;SDS011;59614;51.012;-1.648;2023-08-12T07:58:13;24.00;;;5.15;;
71108;SDS011;59614;51.012;-1.648;2023-08-12T08:00:39;25.02;;;5.57;;
71108;SDS011;59614;51.012;-1.648;2023-08-12T08:03:04;24.83;;;5.30;;
71108;SDS011;59614;51.012;-1.648;2023-08-12T08:05:30;24.77;;;6.13;;
71108;SDS011;59614;51.012;-1.648;2023-08-12T08:07:55;22.50;;;5.15;;
71108;SDS011;59614;51.012;-1.648;2023-08-12T08:10:21;27.52;;;4.70;;
71108;SDS011;59614;51.012;-1.648;2023-08-12T08:12:46;22.30;;;4.90;;
71108;SDS011;59614;51.012;-1.648;2023-08-12T08:15:12;27.27;;;5.18;;
71108;SDS011;59614;51.012;-1.648;2023-08-12T08:17:37;27.05;;;4.63;;
71108;SDS011;59614;51.012;-1.648;2023-08-12T08:20:03;22.58;;;5.57;;
71108;SDS011;59614;51.012;-1.648;2023-08-12T08:22:30;23.48;;;4.93;;
71108;SDS011;59614;51.012;-1.648;2023-08-12T08:24:57;26.83;;;4.82;;
71108;SDS011;59614;51.012;-1.648;2023-08-12T08:27:23;26.40;;;5.00;;
71108;SDS011;59614;51.012;-1.648;2023-08-12T08:29:48;28.85;;;5.68;;
71108;SDS011;59614;51.012;-1.648;2023-08-12T08:32:14;34.55;;;5.82;;
71108;SDS011;59614;51.012;-1.648;2023-08-12T08:34:39;22.83;;;4.85;;
71108;SDS011;59614;51.012;-1.648;2023-08-12T08:37:05;25.48;;;5.57;;
71108;SDS011;59614;51.012;-1.648;2023-08-12T08:39:30;23.63;;;5.07;;
71108;SDS011;59614;51.012;-1.648;2023-08-12T08:41:56;23.13;;;4.88;;
71108;SDS011;59614;51.012;-1.648;2023-08-12T08:44:23;29.70;;;5.60;;
71108;SDS011;59614;51.012;-1.648;2023-08-12T08:46:52;26.25;;;5.22;;
71108;SDS011;59614;51.012;-1.648;2023-08-12T08:49:20;25.90;;;5.32;;
71108;SDS011;59614;51.012;-1.648;2023-08-12T08:51:46;27.95;;;5.57;;
71108;SDS011;59614;51.012;-1.648;2023-08-12T08:54:12;29.92;;;5.47;;
71108;SDS011;59614;51.012;-1.648;2023-08-12T08:56:38;30.08;;;6.38;;
71108;SDS011;59614;51.012;-1.648;2023-08-12T08:59:04;26.70;;;5.65;;
71108;SDS011;59614;51.012;-1.648;2023-08-12T09:01:30;22.13;;;4.85;;
71108;SDS011;59614;51.012;-1.648;2023-08-12T09:03:57;29.17;;;6.07;;
71108;SDS011;59614;51.012;-1.648;2023-08-12T09:06:26;31.02;;;6.35;;
71108;SDS011;59614;51.012;-1.648;2023-08-12T09:08:54;30.73;;;5.38;;
71108;SDS011;59614;51.012;-1.648;2023-08-12T09:11:20;28.75;;;5.53;;
71108;SDS011;59614;51.012;-1.648;2023-08-12T09:13:46;24.73;;;6.15;;
71108;SDS011;59614;51.012;-1.648;2023-08-12T09:16:12;27.05;;;5.18;;
71108;SDS011;59614;51.012;-1.648;2023-08-12T09:18:38;27.65;;;5.32;;
71108;SDS011;59614;51.012;-1.648;2023-08-12T09:21:05;28.77;;;6.33;;
71108;SDS011;59614;51.012;-1.648;2023-08-12T09:23:35;23.13;;;5.65;;
71108;SDS011;59614;51.012;-1.648;2023-08-12T09:26:02;37.90;;;6.68;;
71108;SDS011;59614;51.012;-1.648;2023-08-12T09:28:36;33.40;;;5.93;;
71108;SDS011;59614;51.012;-1.648;2023-08-12T09:31:01;31.17;;;6.03;;
71108;SDS011;59614;51.012;-1.648;2023-08-12T09:33:27;30.10;;;5.95;;
71108;SDS011;59614;51.012;-1.648;2023-08-12T09:35:53;27.23;;;5.53;;
71108;SDS011;59614;51.012;-1.648;2023-08-12T09:38:18;30.40;;;5.90;;
71108;SDS011;59614;51.012;-1.648;2023-08-12T09:40:46;36.00;;;6.35;;
71108;SDS011;59614;51.012;-1.648;2023-08-12T09:43:11;33.63;;;5.95;;
71108;SDS011;59614;51.012;-1.648;2023-08-12T09:45:37;28.05;;;6.25;;
71108;SDS011;59614;51.012;-1.648;2023-08-12T09:48:02;27.02;;;5.40;;
71108;SDS011;59614;51.012;-1.648;2023-08-12T09:50:28;27.33;;;5.18;;
71108;SDS011;59614;51.012;-1.648;2023-08-12T09:52:54;24.02;;;4.55;;
71108;SDS011;59614;51.012;-1.648;2023-08-12T09:55:21;27.75;;;5.72;;
71108;SDS011;59614;51.012;-1.648;2023-08-12T09:57:50;22.67;;;4.10;;
71108;SDS011;59614;51.012;-1.648;2023-08-12T10:00:20;29.00;;;6.18;;
71108;SDS011;59614;51.012;-1.648;2023-08-12T10:02:47;23.42;;;5.07;;
71108;SDS011;59614;51.012;-1.648;2023-08-12T10:07:43;25.50;;;4.63;;
71108;SDS011;59614;51.012;-1.648;2023-08-12T10:12:37;19.75;;;4.03;;
71108;SDS011;59614;51.012;-1.648;2023-08-12T10:15:04;24.25;;;4.75;;
71108;SDS011;59614;51.012;-1.648;2023-08-12T10:17:32;24.30;;;4.90;;
71108;SDS011;59614;51.012;-1.648;2023-08-12T10:19:58;21.15;;;4.18;;
71108;SDS011;59614;51.012;-1.648;2023-08-12T10:22:28;21.40;;;4.30;;
71108;SDS011;59614;51.012;-1.648;2023-08-12T10:24:54;19.55;;;4.30;;
71108;SDS011;59614;51.012;-1.648;2023-08-12T10:27:23;20.65;;;3.97;;
71108;SDS011;59614;51.012;-1.648;2023-08-12T10:29:49;19.63;;;4.40;;
71108;SDS011;59614;51.012;-1.648;2023-08-12T10:32:15;22.38;;;3.97;;
71108;SDS011;59614;51.012;-1.648;2023-08-12T10:34:41;27.58;;;4.22;;
71108;SDS011;59614;51.012;-1.648;2023-08-12T10:37:08;15.95;;;3.40;;
71108;SDS011;59614;51.012;-1.648;2023-08-12T10:39:35;18.58;;;3.85;;
71108;SDS011;59614;51.012;-1.648;2023-08-12T10:42:01;21.10;;;4.45;;
71108;SDS011;59614;51.012;-1.648;2023-08-12T10:44:38;22.50;;;4.13;;
71108;SDS011;59614;51.012;-1.648;2023-08-12T10:47:09;20.42;;;4.25;;
71108;SDS011;59614;51.012;-1.648;2023-08-12T10:49:38;22.60;;;4.28;;
71108;SDS011;59614;51.012;-1.648;2023-08-12T10:54:55;22.27;;;4.35;;
71108;SDS011;59614;51.012;-1.648;2023-08-12T10:57:34;24.52;;;5.30;;
71108;SDS011;59614;51.012;-1.648;2023-08-12T11:00:03;24.40;;;4.97;;
71108;SDS011;59614;51.012;-1.648;2023-08-12T11:02:33;29.13;;;5.60;;
71108;SDS011;59614;51.012;-1.648;2023-08-12T11:05:03;21.42;;;4.43;;
71108;SDS011;59614;51.012;-1.648;2023-08-12T11:07:33;24.70;;;4.78;;
71108;SDS011;59614;51.012;-1.648;2023-08-12T11:10:10;21.27;;;4.82;;
71108;SDS011;59614;51.012;-1.648;2023-08-12T11:15:41;19.58;;;4.60;;
71108;SDS011;59614;51.012;-1.648;2023-08-12T11:18:14;23.55;;;5.38;;
71108;SDS011;59614;51.012;-1.648;2023-08-12T11:20:44;27.77;;;5.22;;
71108;SDS011;59614;51.012;-1.648;2023-08-12T11:23:10;25.73;;;5.63;;
71108;SDS011;59614;51.012;-1.648;2023-08-12T11:25:37;24.55;;;5.03;;
71108;SDS011;59614;51.012;-1.648;2023-08-12T11:28:05;30.50;;;5.30;;
71108;SDS011;59614;51.012;-1.648;2023-08-12T11:30:31;20.35;;;4.47;;
71108;SDS011;59614;51.012;-1.648;2023-08-12T11:32:57;18.98;;;4.72;;
71108;SDS011;59614;51.012;-1.648;2023-08-12T11:35:24;20.60;;;4.47;;
71108;SDS011;59614;51.012;-1.648;2023-08-12T11:37:50;21.30;;;4.65;;
71108;SDS011;59614;51.012;-1.648;2023-08-12T11:40:18;23.27;;;4.80;;
71108;SDS011;59614;51.012;-1.648;2023-08-12T11:42:45;11.50;;;3.30;;
71108;SDS011;59614;51.012;-1.648;2023-08-12T11:45:11;15.77;;;4.07;;
71108;SDS011;59614;51.012;-1.648;2023-08-12T11:47:39;20.00;;;4.05;;
71108;SDS011;59614;51.012;-1.648;2023-08-12T11:50:06;19.05;;;4.53;;
71108;SDS011;59614;51.012;-1.648;2023-08-12T11:54:59;22.83;;;4.18;;
71108;SDS011;59614;51.012;-1.648;2023-08-12T11:57:26;19.52;;;4.55;;
71108;SDS011;59614;51.012;-1.648;2023-08-12T12:00:02;24.42;;;4.60;;
71108;SDS011;59614;51.012;-1.648;2023-08-12T12:05:13;26.90;;;5.00;;
71108;SDS011;59614;51.012;-1.648;2023-08-12T12:07:39;21.23;;;5.00;;
71108;SDS011;59614;51.012;-1.648;2023-08-12T12:10:05;21.00;;;5.13;;
71108;SDS011;59614;51.012;-1.648;2023-08-12T12:12:35;20.88;;;4.40;;
71108;SDS011;59614;51.012;-1.648;2023-08-12T12:15:01;25.55;;;4.60;;
71108;SDS011;59614;51.012;-1.648;2023-08-12T12:17:28;19.10;;;4.82;;
71108;SDS011;59614;51.012;-1.648;2023-08-12T12:19:57;18.60;;;4.85;;
71108;SDS011;59614;51.012;-1.648;2023-08-12T12:22:30;29.63;;;4.75;;
71108;SDS011;59614;51.012;-1.648;2023-08-12T12:24:58;23.00;;;4.80;;
71108;SDS011;59614;51.012;-1.648;2023-08-12T12:27:25;20.83;;;4.57;;
71108;SDS011;59614;51.012;-1.648;2023-08-12T12:29:51;23.25;;;4.53;;
71108;SDS011;59614;51.012;-1.648;2023-08-12T12:32:20;19.48;;;4.57;;
71108;SDS011;59614;51.012;-1.648;2023-08-12T12:34:46;19.92;;;4.78;;
71108;SDS011;59614;51.012;-1.648;2023-08-12T12:37:12;23.60;;;4.68;;
71108;SDS011;59614;51.012;-1.648;2023-08-12T12:39:38;19.80;;;4.60;;
71108;SDS011;59614;51.012;-1.648;2023-08-12T12:42:04;22.92;;;5.00;;
71108;SDS011;59614;51.012;-1.648;2023-08-12T12:44:30;21.35;;;4.78;;
71108;SDS011;59614;51.012;-1.648;2023-08-12T12:46:55;21.95;;;4.60;;
71108;SDS011;59614;51.012;-1.648;2023-08-12T12:49:21;19.00;;;3.72;;
71108;SDS011;59614;51.012;-1.648;2023-08-12T12:51:46;21.08;;;4.18;;
71108;SDS011;59614;51.012;-1.648;2023-08-12T12:54:12;19.95;;;4.40;;
71108;SDS011;59614;51.012;-1.648;2023-08-12T12:56:37;19.17;;;5.03;;
71108;SDS011;59614;51.012;-1.648;2023-08-12T12:59:03;19.73;;;4.03;;
71108;SDS011;59614;51.012;-1.648;2023-08-12T13:01:28;24.17;;;4.78;;
71108;SDS011;59614;51.012;-1.648;2023-08-12T13:03:53;22.55;;;4.00;;
71108;SDS011;59614;51.012;-1.648;2023-08-12T13:06:19;22.33;;;4.85;;
71108;SDS011;59614;51.012;-1.648;2023-08-12T13:08:44;18.73;;;4.22;;
71108;SDS011;59614;51.012;-1.648;2023-08-12T13:11:10;19.55;;;4.63;;
71108;SDS011;59614;51.012;-1.648;2023-08-12T13:13:35;20.17;;;4.47;;
71108;SDS011;59614;51.012;-1.648;2023-08-12T13:16:00;24.75;;;4.57;;
71108;SDS011;59614;51.012;-1.648;2023-08-12T13:18:26;21.45;;;4.03;;
71108;SDS011;59614;51.012;-1.648;2023-08-12T13:20:51;22.70;;;4.50;;
71108;SDS011;59614;51.012;-1.648;2023-08-12T13:23:17;28.23;;;4.30;;
71108;SDS011;59614;51.012;-1.648;2023-08-12T13:25:42;19.05;;;4.28;;
71108;SDS011;59614;51.012;-1.648;2023-08-12T13:28:08;17.67;;;4.25;;
71108;SDS011;59614;51.012;-1.648;2023-08-12T13:30:33;16.60;;;4.20;;
71108;SDS011;59614;51.012;-1.648;2023-08-12T13:32:59;17.35;;;3.72;;
71108;SDS011;59614;51.012;-1.648;2023-08-12T13:35:24;18.30;;;4.13;;
71108;SDS011;59614;51.012;-1.648;2023-08-12T13:37:50;23.92;;;4.22;;
71108;SDS011;59614;51.012;-1.648;2023-08-12T13:40:18;17.25;;;4.03;;
71108;SDS011;59614;51.012;-1.648;2023-08-12T13:42:44;17.15;;;4.35;;
71108;SDS011;59614;51.012;-1.648;2023-08-12T13:45:11;14.90;;;3.67;;
71108;SDS011;59614;51.012;-1.648;2023-08-12T13:47:38;15.30;;;3.75;;
71108;SDS011;59614;51.012;-1.648;2023-08-12T13:50:04;15.27;;;3.40;;
71108;SDS011;59614;51.012;-1.648;2023-08-12T13:52:30;12.30;;;3.35;;
71108;SDS011;59614;51.012;-1.648;2023-08-12T13:54:55;17.98;;;3.90;;
71108;SDS011;59614;51.012;-1.648;2023-08-12T13:57:21;14.38;;;3.25;;
71108;SDS011;59614;51.012;-1.648;2023-08-12T13:59:46;15.38;;;3.55;;
71108;SDS011;59614;51.012;-1.648;2023-08-12T14:02:12;17.42;;;3.60;;
71108;SDS011;59614;51.012;-1.648;2023-08-12T14:04:38;17.25;;;3.50;;
71108;SDS011;59614;51.012;-1.648;2023-08-12T14:07:04;13.63;;;3.70;;
71108;SDS011;59614;51.012;-1.648;2023-08-12T14:09:29;13.73;;;3.38;;
71108;SDS011;59614;51.012;-1.648;2023-08-12T14:11:55;16.25;;;3.85;;
71108;SDS011;59614;51.012;-1.648;2023-08-12T14:14:20;14.80;;;3.50;;
71108;SDS011;59614;51.012;-1.648;2023-08-12T14:16:46;14.63;;;3.50;;
71108;SDS011;59614;51.012;-1.648;2023-08-12T14:19:11;14.48;;;3.95;;
71108;SDS011;59614;51.012;-1.648;2023-08-12T14:21:36;14.25;;;3.20;;
71108;SDS011;59614;51.012;-1.648;2023-08-12T14:24:02;14.88;;;3.58;;
71108;SDS011;59614;51.012;-1.648;2023-08-12T14:26:27;13.73;;;3.58;;
71108;SDS011;59614;51.012;-1.648;2023-08-12T14:28:53;16.33;;;4.00;;
71108;SDS011;59614;51.012;-1.648;2023-08-12T14:31:18;19.48;;;3.95;;
71108;SDS011;59614;51.012;-1.648;2023-08-12T14:33:44;16.20;;;4.25;;
71108;SDS011;59614;51.012;-1.648;2023-08-12T14:36:09;16.38;;;3.45;;
71108;SDS011;59614;51.012;-1.648;2023-08-12T14:38:35;15.52;;;3.40;;